Government Camp, Oregon
Current Conditions -  °F | °C
As of 5:39 AM on Saturday 20 Dec 2014 (Local Time) from K4S2 Reporting Station
Moderate Rain Moderate Rain  
Wind Chill: 41°   Ceiling: 300
Heat Index: 41°   Visibility: 1mi
Dew Point: 39°   Wind: 0mph
Humidity: 93%   Direction: NA
Pressure: 29.84"   Gusts: NA
Location:  45.3°N, 121.75°W
Report Text: K4S2 201339Z AUTO 00000KT 1SM RA OVC003 05/04 A2984 RMK AO2 P0003 SLP121 T00500040
Loading
Personal Weather Stations






























Interactive Weather Map New forecast layout! Learn more

10-Day Weather Forecast

Advertisements
Track Severe Weather on mobile